Dades meteomassalio
Diari Summary for Gener 28, 2017 Units:  Metric    English   Both
« Previous Day
Next Day »
Diari Semanal Mensual Anual Personalitzat
  Maxima: Minima: Mijana:
Temperatura: -17.8 °C -14.3 °C -13.1 °C
Rosada: -17.8 °C -16.7 °C -15.5 °C
Humitat: Humidity % 54 % 75 %
Velocitat del vent: 0 km/h 0 km/h 40.6 km/h
Racha vent: 0 km/h - -
Vent:- - WNW
Pressio: 0 hPa 34256.2 hPa -
Pluja: 200.66 mm    
Historical Graphs
 
 
Tabular Data for Gener 28, 2017
Time Temperature Dew Point Pressure Wind Wind Speed Wind Gust Humidity Rainfall Rate (Hourly) solar Conditions
-17.8 °C -17.8 °C 0 hPa Calm     Humidity % 0 mm SolarRadiationWatts/m^2 W/m2 Conditions
00:03 -13.2 °C -14.5 °C 34256.2 hPa WNW 50.7 km/h 50.7 km/h 85 % 0 mm 0.0 W/m2 RA
00:13 -13.2 °C -14.7 °C 34269.7 hPa WNW 38.8 km/h 38.8 km/h 83 % 0 mm 0.0 W/m2 CLR
00:18 -13.3 °C -14.8 °C 34269.7 hPa WNW 38.8 km/h 38.8 km/h 83 % 0 mm 0.0 W/m2 CLR
00:28 -13.4 °C -14.7 °C 34269.7 hPa WNW 50.7 km/h 50.7 km/h 85 % 0 mm 0.0 W/m2 CLR
00:33 -13.4 °C -14.7 °C 34279.9 hPa WNW 47.6 km/h 47.6 km/h 86 % 0 mm 0.0 W/m2 CLR
00:38 -13.5 °C -14.7 °C 34279.9 hPa WNW 38.8 km/h 38.8 km/h 86 % 0 mm 0.0 W/m2 CLR
00:48 -13.5 °C -14.6 °C 34279.9 hPa WNW 29.8 km/h 29.8 km/h 87 % 0 mm 0.0 W/m2 CLR
00:53 -13.6 °C -14.7 °C 34279.9 hPa WNW 26.9 km/h 26.9 km/h 87 % 0 mm 0.0 W/m2 CLR
00:58 -13.6 °C -14.6 °C 34293.4 hPa WNW 29.8 km/h 29.8 km/h 88 % 0 mm 0.0 W/m2 CLR
01:03 -13.6 °C -14.6 °C 34293.4 hPa WNW 44.7 km/h 44.7 km/h 89 % 0 mm 0.0 W/m2 CLR
01:08 -13.6 °C -14.5 °C 34293.4 hPa WNW 47.6 km/h 47.6 km/h 90 % 0 mm 0.0 W/m2 CLR
01:13 -13.7 °C -14.4 °C 34293.4 hPa WNW 29.8 km/h 29.8 km/h 91 % 0 mm 0.0 W/m2 CLR
01:18 -13.7 °C -14.5 °C 34293.4 hPa NW 29.8 km/h 29.8 km/h 91 % 7.62 mm 0.0 W/m2 RA
01:23 -13.8 °C -14.6 °C 34293.4 hPa NW 32.8 km/h 32.8 km/h 91 % 7.62 mm 0.0 W/m2
01:28 -13.9 °C -14.7 °C 34293.4 hPa NW 47.6 km/h 47.6 km/h 91 % 7.62 mm 0.0 W/m2 CLR
01:33 -13.9 °C -14.6 °C 34293.4 hPa NW 46.7 km/h 46.7 km/h 92 % 7.62 mm 0.0 W/m2 CLR
01:38 -14 °C -14.7 °C 34293.4 hPa NW 41.7 km/h 41.7 km/h 92 % 7.62 mm 0.0 W/m2 CLR
01:43 -14 °C -14.7 °C 34293.4 hPa NW 38.8 km/h 38.8 km/h 92 % 7.62 mm 0.0 W/m2 CLR
01:53 -14 °C -14.7 °C 34293.4 hPa NW 41.7 km/h 41.7 km/h 92 % 7.62 mm 0.0 W/m2 CLR
01:58 -14.1 °C -14.7 °C 34293.4 hPa NW 36.2 km/h 36.2 km/h 92 % 7.62 mm 0.0 W/m2 CLR
02:08 -14.1 °C -14.8 °C 34303.6 hPa NW 47.6 km/h 47.6 km/h 92 % 20.32 mm 0.0 W/m2 RA
02:13 -14.1 °C -14.8 °C 34303.6 hPa NW 41.7 km/h 41.7 km/h 92 % 25.4 mm 0.0 W/m2 RA
02:18 -14.1 °C -14.8 °C 34313.7 hPa NW 44.7 km/h 44.7 km/h 92 % 33.02 mm 0.0 W/m2 RA
02:23 -14.1 °C -14.8 °C 34313.7 hPa NW 54.4 km/h 54.4 km/h 92 % 38.1 mm 0.0 W/m2 RA
02:28 -14.1 °C -14.8 °C 34303.6 hPa NW 41.7 km/h 41.7 km/h 92 % 71.12 mm 0.0 W/m2 RA
02:33 -14.1 °C -14.8 °C 34313.7 hPa NW 41.7 km/h 41.7 km/h 92 % 83.82 mm 0.0 W/m2 RA
02:38 -14.1 °C -14.7 °C 34313.7 hPa NW 35.7 km/h 35.7 km/h 93 % 91.44 mm 0.0 W/m2 RA
02:43 -14.1 °C -14.8 °C 34313.7 hPa NW 32.8 km/h 32.8 km/h 92 % 96.52 mm 0.0 W/m2 RA
02:48 -14.1 °C -14.8 °C 34313.7 hPa NW 36.2 km/h 36.2 km/h 92 % 104.14 mm 0.0 W/m2 RA
02:53 -14.1 °C -14.7 °C 34313.7 hPa NW 50.7 km/h 50.7 km/h 93 % 104.14 mm 0.0 W/m2 CLR
02:58 -14.1 °C -14.7 °C 34327.3 hPa NW 53.6 km/h 53.6 km/h 93 % 109.22 mm 0.0 W/m2 RA
03:03 -14.1 °C -14.7 °C 34327.3 hPa NW 50.7 km/h 50.7 km/h 93 % 109.22 mm 0.0 W/m2 CLR
03:08 -14.1 °C -14.7 °C 34327.3 hPa NW 44.7 km/h 44.7 km/h 93 % 96.52 mm 0.0 W/m2 RA
03:13 -14.1 °C -14.7 °C 34327.3 hPa NW 47.6 km/h 47.6 km/h 93 % 91.44 mm 0.0 W/m2 CLR
03:18 -14.1 °C -14.7 °C 34327.3 hPa NW 41.7 km/h 41.7 km/h 93 % 83.82 mm 0.0 W/m2 CLR
03:39 -14.1 °C -14.7 °C 34337.4 hPa NW 41.7 km/h 41.7 km/h 93 % 33.02 mm 0.0 W/m2
03:44 -14.1 °C -14.7 °C 34337.4 hPa WNW 35.7 km/h 35.7 km/h 93 % 25.4 mm 0.0 W/m2 CLR
03:49 -14.1 °C -14.7 °C 34337.4 hPa NW 47.6 km/h 47.6 km/h 93 % 33.02 mm 0.0 W/m2 RA
03:54 -14.1 °C -14.7 °C 34337.4 hPa NW 29.8 km/h 29.8 km/h 93 % 38.1 mm 0.0 W/m2 RA
03:59 -14.1 °C -14.7 °C 34337.4 hPa NW 47.6 km/h 47.6 km/h 93 % 33.02 mm 0.0 W/m2
04:04 -14.1 °C -14.7 °C 34337.4 hPa NW 32.8 km/h 32.8 km/h 93 % 38.1 mm 0.0 W/m2 RA
04:09 -14.1 °C -14.7 °C 34337.4 hPa NW 44.7 km/h 44.7 km/h 93 % 33.02 mm 0.0 W/m2 CLR
04:14 -14.1 °C -14.7 °C 34337.4 hPa NW 38.8 km/h 38.8 km/h 93 % 38.1 mm 0.0 W/m2 RA
04:24 -14.1 °C -14.6 °C 34347.6 hPa NW 38.8 km/h 38.8 km/h 93 % 33.02 mm 0.0 W/m2 CLR
04:28 -14.1 °C -14.6 °C 34347.6 hPa NW 35.7 km/h 35.7 km/h 93 % 33.02 mm 0.0 W/m2 CLR
04:33 -14.1 °C -14.6 °C 34347.6 hPa NW 26.9 km/h 26.9 km/h 93 % 25.4 mm 0.0 W/m2 CLR
04:43 -14 °C -14.6 °C 34361.1 hPa NW 36.2 km/h 36.2 km/h 93 % 25.4 mm 0.0 W/m2 CLR
04:48 -14 °C -14.6 °C 34361.1 hPa NW 29.8 km/h 29.8 km/h 93 % 12.7 mm 0.0 W/m2 CLR
04:53 -14 °C -14.6 °C 34361.1 hPa NW 29.8 km/h 29.8 km/h 93 % 12.7 mm 0.0 W/m2 CLR
04:58 -14 °C -14.6 °C 34361.1 hPa NW 35.7 km/h 35.7 km/h 93 % 12.7 mm 0.0 W/m2 CLR
05:03 -14 °C -14.6 °C 34361.1 hPa NW 35.7 km/h 35.7 km/h 93 % 7.62 mm 0.0 W/m2 CLR
05:13 -14.1 °C -14.7 °C 34371.3 hPa NW 35.7 km/h 35.7 km/h 92 % 0 mm 0.0 W/m2 CLR
05:18 -14.1 °C -14.6 °C 34371.3 hPa NW 35.7 km/h 35.7 km/h 93 % 0 mm 0.0 W/m2 CLR
05:23 -14.1 °C -14.7 °C 34371.3 hPa NW 47.6 km/h 47.6 km/h 92 % 0 mm 0.0 W/m2 CLR
05:28 -14 °C -14.7 °C 34384.8 hPa NW 35.7 km/h 35.7 km/h 92 % 0 mm 0.0 W/m2 CLR
05:33 -14 °C -14.7 °C 34384.8 hPa NW 36.2 km/h 36.2 km/h 92 % 0 mm 0.0 W/m2 CLR
05:38 -14 °C -14.7 °C 34384.8 hPa NW 50.7 km/h 50.7 km/h 92 % 0 mm 0.0 W/m2 CLR
05:48 -14 °C -14.8 °C 34395 hPa NW 44.1 km/h 44.1 km/h 91 % 0 mm 0.0 W/m2 CLR
05:53 -14 °C -14.8 °C 34395 hPa NW 50.7 km/h 50.7 km/h 91 % 0 mm 0.0 W/m2 CLR
05:58 -14 °C -14.8 °C 34395 hPa NW 50.7 km/h 50.7 km/h 91 % 0 mm 0.0 W/m2 CLR
06:03 -14.1 °C -14.8 °C 34395 hPa NW 29.8 km/h 29.8 km/h 91 % 0 mm 0.0 W/m2 CLR
06:08 -14.1 °C -14.8 °C 34405.1 hPa NW 32.8 km/h 32.8 km/h 91 % 0 mm 0.0 W/m2 CLR
06:13 -14.1 °C -14.8 °C 34405.1 hPa NW 38.8 km/h 38.8 km/h 91 % 0 mm 0.0 W/m2 CLR
06:18 -14.1 °C -14.8 °C 34418.7 hPa NW 38.8 km/h 38.8 km/h 91 % 0 mm 0.0 W/m2 CLR
06:23 -14.1 °C -14.8 °C 34418.7 hPa NW 44.7 km/h 44.7 km/h 91 % 0 mm 0.0 W/m2 CLR
06:28 -14.1 °C -14.8 °C 34418.7 hPa NW 47.6 km/h 47.6 km/h 91 % 0 mm 0.0 W/m2 CLR
06:33 -14.1 °C -14.9 °C 34418.7 hPa NW 36.2 km/h 36.2 km/h 91 % 12.7 mm 0.0 W/m2 RA
06:38 -14.1 °C -14.9 °C 34418.7 hPa NW 50.7 km/h 50.7 km/h 91 % 12.7 mm 0.0 W/m2
06:43 -14.2 °C -14.9 °C 34418.7 hPa NW 53.6 km/h 53.6 km/h 91 % 12.7 mm 0.0 W/m2 RA
06:53 -14.2 °C -14.9 °C 34428.8 hPa NW 41.7 km/h 41.7 km/h 91 % 25.4 mm 0.0 W/m2 RA
07:03 -14.2 °C -15 °C 34428.8 hPa NW 46.7 km/h 46.7 km/h 91 % 33.02 mm 0.0 W/m2 RA
07:08 -14.2 °C -15 °C 34428.8 hPa NW 38.8 km/h 38.8 km/h 91 % 33.02 mm 0.0 W/m2 CLR
07:18 -14.3 °C -15.1 °C 34442.4 hPa NW 41.4 km/h 41.4 km/h 91 % 38.1 mm 0.0 W/m2 CLR
07:23 -14.3 °C -15.1 °C 34442.4 hPa NW 35.7 km/h 35.7 km/h 91 % 38.1 mm 0.0 W/m2 CLR
07:28 -14.3 °C -15.1 °C 34452.6 hPa NW 35.7 km/h 35.7 km/h 91 % 45.72 mm 0.0 W/m2 RA
07:33 -14.2 °C -15.1 °C 34452.6 hPa NW 35.7 km/h 35.7 km/h 90 % 38.1 mm 0.0 W/m2 CLR
07:38 -14.2 °C -15.1 °C 34452.6 hPa NW 47.6 km/h 47.6 km/h 90 % 38.1 mm 0.0 W/m2 CLR
07:43 -14.2 °C -15.1 °C 34452.6 hPa NW 32.8 km/h 32.8 km/h 90 % 33.02 mm 0.0 W/m2 CLR
07:48 -14.2 °C -15.1 °C 34462.7 hPa NW 47.6 km/h 47.6 km/h 90 % 25.4 mm 0.0 W/m2 CLR
07:53 -14.2 °C -15.1 °C 34462.7 hPa NW 50.7 km/h 50.7 km/h 89 % 20.32 mm 0.0 W/m2 CLR
07:58 -14.1 °C -15.1 °C 34462.7 hPa NW 56.6 km/h 56.6 km/h 89 % 20.32 mm 0.0 W/m2 CLR
08:03 -14.1 °C -15.1 °C 34462.7 hPa NW 56.6 km/h 56.6 km/h 88 % 12.7 mm 0.0 W/m2 OVC
08:08 -14.1 °C -15.1 °C 34476.3 hPa NW 44.7 km/h 44.7 km/h 88 % 12.7 mm 0.0 W/m2 OVC
08:18 -14.1 °C -15.1 °C 34476.3 hPa NW 47.6 km/h 47.6 km/h 88 % 12.7 mm 0.0 W/m2 OVC
08:23 -14.1 °C -15.1 °C 34476.3 hPa NW 32.8 km/h 32.8 km/h 88 % 12.7 mm 0.0 W/m2 OVC
08:28 -14.1 °C -15.1 °C 34476.3 hPa WNW 26.9 km/h 26.9 km/h 88 % 0 mm 0.0 W/m2 OVC
08:33 -14.1 °C -15.1 °C 34486.4 hPa WNW 29.8 km/h 29.8 km/h 88 % 0 mm 5.0 W/m2 OVC
08:43 -14 °C -15.1 °C 34486.4 hPa NW 35.7 km/h 35.7 km/h 87 % 0 mm 11.0 W/m2 BKN
08:48 -14 °C -15.2 °C 34486.4 hPa WNW 28.5 km/h 28.5 km/h 86 % 0 mm 12.0 W/m2 BKN
08:53 -14 °C -15.1 °C 34496.6 hPa WNW 38.8 km/h 38.8 km/h 87 % 0 mm 16.0 W/m2 BKN
08:59 -14 °C -15.1 °C 34496.6 hPa NW 32.8 km/h 32.8 km/h 87 % 0 mm 18.0 W/m2 BKN
09:04 -14 °C -15.2 °C 34496.6 hPa WNW 38.8 km/h 38.8 km/h 86 % 0 mm 23.0 W/m2 BKN
09:09 -13.9 °C -15.2 °C 34496.6 hPa NW 38.8 km/h 38.8 km/h 86 % 0 mm 28.0 W/m2 BKN
09:14 -13.9 °C -15.2 °C 34496.6 hPa NW 50.7 km/h 50.7 km/h 85 % 0 mm 33.0 W/m2 BKN
09:19 -13.8 °C -15.1 °C 34510.1 hPa WNW 41.7 km/h 41.7 km/h 85 % 0 mm 39.0 W/m2 BKN
09:24 -13.8 °C -15.2 °C 34510.1 hPa NW 36.2 km/h 36.2 km/h 84 % 0 mm 47.0 W/m2 BKN
09:29 -13.8 °C -15.2 °C 34510.1 hPa NW 44.1 km/h 44.1 km/h 84 % 0 mm 53.0 W/m2 BKN
09:34 -13.7 °C -15.2 °C 34510.1 hPa NW 47.6 km/h 47.6 km/h 83 % 0 mm 54.0 W/m2 SCT
09:39 -13.7 °C -15.2 °C 34520.3 hPa NW 20.9 km/h 24.6 km/h 83 % 0 mm 60.0 W/m2 SCT
09:44 -13.7 °C -15.2 °C 34520.3 hPa WNW 41.7 km/h 41.7 km/h 82 % 0 mm 74.0 W/m2 SCT
09:49 -13.6 °C -15.2 °C 34520.3 hPa NW 53.6 km/h 53.6 km/h 82 % 0 mm 81.0 W/m2 FEW
09:54 -13.6 °C -15.2 °C 34520.3 hPa NW 41.7 km/h 41.7 km/h 82 % 0 mm 84.0 W/m2 FEW
09:59 -13.6 °C -15.2 °C 34533.8 hPa NW 38.8 km/h 38.8 km/h 81 % 0 mm 93.0 W/m2 FEW
10:04 -13.5 °C -15.2 °C 34533.8 hPa NW 44.7 km/h 44.7 km/h 81 % 0 mm 102.0 W/m2 CLR
10:09 -13.5 °C -15.3 °C 34533.8 hPa NW 41.7 km/h 41.7 km/h 80 % 0 mm 113.0 W/m2 CLR
10:14 -13.4 °C -15.2 °C 34544 hPa NW 50.7 km/h 50.7 km/h 80 % 0 mm 132.0 W/m2 CLR
10:19 -13.4 °C -15.2 °C 34544 hPa NW 47.6 km/h 47.6 km/h 80 % 0 mm 111.0 W/m2 CLR
10:24 -13.4 °C -15.2 °C 34544 hPa NW 46.7 km/h 46.7 km/h 80 % 0 mm 120.0 W/m2 CLR
10:29 -13.3 °C -15.2 °C 34544 hPa NW 38.8 km/h 38.8 km/h 79 % 0 mm 114.0 W/m2 CLR
10:34 -13.3 °C -15.2 °C 34554.1 hPa NW 44.1 km/h 44.1 km/h 79 % 0 mm 135.0 W/m2 CLR
10:39 -13.3 °C -15.2 °C 34554.1 hPa NW 41.7 km/h 41.7 km/h 79 % 0 mm 130.0 W/m2 CLR
10:44 -13.3 °C -15.2 °C 34554.1 hPa NW 36.2 km/h 36.2 km/h 79 % 0 mm 137.0 W/m2 CLR
10:49 -13.2 °C -15.2 °C 34554.1 hPa NW 47.6 km/h 47.6 km/h 78 % 0 mm 146.0 W/m2 CLR
10:54 -13.2 °C -15.2 °C 34554.1 hPa NW 44.7 km/h 44.7 km/h 78 % 0 mm 169.0 W/m2 CLR
10:59 -13.1 °C -15.1 °C 34554.1 hPa NW 47.6 km/h 47.6 km/h 78 % 0 mm 381.0 W/m2 CLR
11:04 -13 °C -15.1 °C 34554.1 hPa NW 65.5 km/h 65.5 km/h 77 % 0 mm 339.0 W/m2 CLR
11:09 -12.9 °C -15.1 °C 34554.1 hPa NW 56.6 km/h 56.6 km/h 76 % 0 mm 445.0 W/m2 CLR
11:14 -12.7 °C -14.9 °C 34567.7 hPa NW 56.6 km/h 56.6 km/h 76 % 0 mm 513.0 W/m2 CLR
11:19 -12.6 °C -14.8 °C 34567.7 hPa NW 56.6 km/h 56.6 km/h 76 % 0 mm 522.0 W/m2 CLR
11:24 -12.6 °C -15.1 °C 34567.7 hPa NW 47.6 km/h 47.6 km/h 73 % 0 mm 385.0 W/m2 CLR
11:34 -12.4 °C -14.9 °C 34567.7 hPa NW 38.8 km/h 38.8 km/h 74 % 0 mm 457.0 W/m2 CLR
11:39 -12.4 °C -15.1 °C 34567.7 hPa NW 68.6 km/h 68.6 km/h 72 % 0 mm 439.0 W/m2 CLR
11:44 -12.3 °C -15 °C 34567.7 hPa NW 50.7 km/h 50.7 km/h 72 % 0 mm 441.0 W/m2 CLR
11:49 -12.2 °C -14.8 °C 34567.7 hPa NW 49.2 km/h 49.2 km/h 73 % 0 mm 468.0 W/m2 CLR
11:54 -12.1 °C -14.9 °C 34567.7 hPa NW 59.5 km/h 59.5 km/h 71 % 0 mm 504.0 W/m2 CLR
11:59 -12.1 °C -15.4 °C 34567.7 hPa NW 83.4 km/h 83.4 km/h 66 % 0 mm 557.0 W/m2 CLR
12:04 -12.1 °C -15.2 °C 34567.7 hPa NW 59.5 km/h 59.5 km/h 68 % 0 mm 533.0 W/m2 CLR
12:09 -12.1 °C -15.4 °C 34567.7 hPa NW 80.5 km/h 80.5 km/h 66 % 0 mm 510.0 W/m2 CLR
12:14 -12.1 °C -15.3 °C 34567.7 hPa NW 62.6 km/h 62.6 km/h 67 % 0 mm 499.0 W/m2 CLR
12:19 -12 °C -15.2 °C 34567.7 hPa NW 59.5 km/h 59.5 km/h 67 % 0 mm 489.0 W/m2 CLR
12:24 -11.9 °C -15.3 °C 34567.7 hPa NW 62.6 km/h 62.6 km/h 66 % 0 mm 490.0 W/m2 CLR
12:29 -11.9 °C -15.6 °C 34567.7 hPa NW 74.5 km/h 74.5 km/h 64 % 0 mm 499.0 W/m2 CLR
12:34 -11.9 °C -15.7 °C 34567.7 hPa NW 62.6 km/h 62.6 km/h 63 % 0 mm 503.0 W/m2 CLR
12:39 -11.8 °C -15.7 °C 34567.7 hPa NW 71.5 km/h 71.5 km/h 62 % 0 mm 510.0 W/m2 CLR
12:44 -11.8 °C -15.5 °C 34567.7 hPa NW 57 km/h 57 km/h 63 % 0 mm 520.0 W/m2 CLR
12:49 -11.7 °C -15.4 °C 34567.7 hPa NW 47.6 km/h 47.6 km/h 64 % 0 mm 548.0 W/m2 CLR
12:54 -11.7 °C -15.2 °C 34567.7 hPa NW 59.5 km/h 59.5 km/h 65 % 0 mm 494.0 W/m2 CLR
12:59 -11.7 °C -15.2 °C 34567.7 hPa NW 50.7 km/h 50.7 km/h 65 % 0 mm 288.0 W/m2 CLR
13:04 -11.9 °C -15.3 °C 34567.7 hPa NW 53.6 km/h 53.6 km/h 66 % 0 mm 285.0 W/m2 CLR
13:09 -11.9 °C -15.4 °C 34567.7 hPa NW 74.5 km/h 74.5 km/h 65 % 0 mm 359.0 W/m2 CLR
13:14 -11.8 °C -15.3 °C 34567.7 hPa NW 80.3 km/h 80.3 km/h 65 % 0 mm 656.0 W/m2 CLR
13:19 -11.7 °C -15.4 °C 34567.7 hPa NW 68.6 km/h 68.6 km/h 64 % 0 mm 622.0 W/m2 CLR
13:24 -11.7 °C -15.4 °C 34554.1 hPa NW 68.6 km/h 68.6 km/h 64 % 0 mm 629.0 W/m2 CLR
13:29 -11.8 °C -15.6 °C 34554.1 hPa NW 65.5 km/h 65.5 km/h 63 % 0 mm 195.0 W/m2 CLR
13:34 -11.9 °C -15.5 °C 34554.1 hPa NNW 62.6 km/h 62.6 km/h 64 % 0 mm 322.0 W/m2 CLR
13:44 -11.9 °C -15.4 °C 34554.1 hPa NW 51.8 km/h 51.8 km/h 65 % 0 mm 272.0 W/m2 CLR
13:49 -11.9 °C -15.3 °C 34554.1 hPa NW 59.5 km/h 59.5 km/h 66 % 0 mm 406.0 W/m2 CLR
13:50 -11.9 °C -15.3 °C 34554.1 hPa NW 59.5 km/h 59.5 km/h 66 % 0 mm 503.0 W/m2 CLR
13:55 -11.9 °C -15.4 °C 34554.1 hPa WNW 50.7 km/h 50.7 km/h 65 % 0 mm 139.0 W/m2 CLR
14:00 -12.1 °C -15.5 °C 34554.1 hPa WNW 50.7 km/h 50.7 km/h 65 % 0 mm 127.0 W/m2 CLR
14:05 -12.1 °C -15.6 °C 34554.1 hPa WNW 44.7 km/h 44.7 km/h 65 % 0 mm 149.0 W/m2 CLR
14:10 -12 °C -15.6 °C 34554.1 hPa WNW 50.7 km/h 50.7 km/h 64 % 0 mm 378.0 W/m2 CLR
14:15 -11.8 °C -15.3 °C 34554.1 hPa WNW 47.6 km/h 47.6 km/h 65 % 0 mm 517.0 W/m2 CLR
14:20 -11.6 °C -15.4 °C 34554.1 hPa NW 59.5 km/h 59.5 km/h 62 % 0 mm 489.0 W/m2 CLR
14:25 -11.5 °C -15.4 °C 34554.1 hPa NW 53.6 km/h 53.6 km/h 62 % 0 mm 473.0 W/m2 CLR
14:30 -11.5 °C -15.4 °C 34554.1 hPa NW 47.6 km/h 47.6 km/h 62 % 0 mm 471.0 W/m2 CLR
14:35 -11.4 °C -15.2 °C 34554.1 hPa NW 50.7 km/h 50.7 km/h 63 % 0 mm 464.0 W/m2 CLR
14:45 -11.4 °C -15.6 °C 34544 hPa NW 62.6 km/h 62.6 km/h 60 % 0 mm 450.0 W/m2 CLR
14:50 -11.4 °C -15.7 °C 34554.1 hPa NW 62.6 km/h 62.6 km/h 59 % 0 mm 434.0 W/m2 CLR
14:55 -11.4 °C -15.6 °C 34554.1 hPa NW 44.7 km/h 44.7 km/h 60 % 0 mm 434.0 W/m2 CLR
15:00 -11.3 °C -15.5 °C 34554.1 hPa NW 56.6 km/h 56.6 km/h 60 % 0 mm 418.0 W/m2 CLR
15:05 -11.3 °C -15.7 °C 34554.1 hPa NW 33.6 km/h 33.6 km/h 59 % 0 mm 380.0 W/m2 CLR
15:15 -11.2 °C -15.7 °C 34554.1 hPa NW 50.7 km/h 50.7 km/h 58 % 0 mm 403.0 W/m2 CLR
15:20 -11.2 °C -15.4 °C 34554.1 hPa NW 47.6 km/h 47.6 km/h 60 % 0 mm 394.0 W/m2 CLR
15:25 -11.2 °C -15.5 °C 34554.1 hPa NW 44.7 km/h 44.7 km/h 59 % 0 mm 385.0 W/m2 CLR
15:30 -11.2 °C -15.2 °C 34554.1 hPa NW 38.8 km/h 38.8 km/h 61 % 0 mm 373.0 W/m2 CLR
15:35 -11.2 °C -15.8 °C 34554.1 hPa NW 65.5 km/h 65.5 km/h 57 % 0 mm 366.0 W/m2 CLR
15:40 -11.2 °C -15.5 °C 34567.7 hPa WNW 50.7 km/h 50.7 km/h 59 % 0 mm 353.0 W/m2 CLR
15:45 -11.2 °C -15.5 °C 34567.7 hPa WNW 41.4 km/h 41.4 km/h 59 % 0 mm 334.0 W/m2 CLR
15:55 -11.3 °C -15.8 °C 34567.7 hPa NW 41.7 km/h 41.7 km/h 57 % 0 mm 316.0 W/m2 CLR
16:00 -11.3 °C -15.4 °C 34577.8 hPa NW 36.2 km/h 36.2 km/h 60 % 0 mm 308.0 W/m2 CLR
16:05 -11.2 °C -15.8 °C 34577.8 hPa NW 38.8 km/h 38.8 km/h 57 % 0 mm 295.0 W/m2 CLR
16:10 -11.2 °C -15.8 °C 34577.8 hPa NW 50.7 km/h 50.7 km/h 57 % 0 mm 281.0 W/m2 CLR
16:15 -11.2 °C -15.7 °C 34577.8 hPa NW 44.7 km/h 44.7 km/h 58 % 0 mm 267.0 W/m2 CLR
16:20 -11.3 °C -15.7 °C 34577.8 hPa NW 38.8 km/h 38.8 km/h 58 % 0 mm 255.0 W/m2 CLR
16:25 -11.3 °C -15.8 °C 34577.8 hPa NW 50.7 km/h 50.7 km/h 57 % 0 mm 244.0 W/m2 CLR
16:30 -11.3 °C -15.7 °C 34577.8 hPa NW 50.7 km/h 50.7 km/h 58 % 0 mm 229.0 W/m2 CLR
16:35 -11.2 °C -15.7 °C 34591.4 hPa WNW 32.8 km/h 32.8 km/h 58 % 0 mm 209.0 W/m2 CLR
16:40 -11.2 °C -15.7 °C 34591.4 hPa WNW 33.6 km/h 33.6 km/h 58 % 0 mm 195.0 W/m2 CLR
16:45 -11.3 °C -16 °C 34591.4 hPa NW 44.7 km/h 44.7 km/h 56 % 0 mm 183.0 W/m2 CLR
16:50 -11.3 °C -16.3 °C 34591.4 hPa NW 41.7 km/h 41.7 km/h 54 % 0 mm 158.0 W/m2 CLR
16:55 -11.3 °C -16.2 °C 34591.4 hPa NW 41.7 km/h 41.7 km/h 55 % 0 mm 146.0 W/m2 CLR
17:00 -11.3 °C -16.1 °C 34591.4 hPa WNW 38.8 km/h 38.8 km/h 56 % 0 mm 109.0 W/m2 CLR
17:05 -11.3 °C -16.2 °C 34591.4 hPa NW 35.7 km/h 35.7 km/h 55 % 0 mm 98.0 W/m2 CLR
17:06 -11.3 °C -16.1 °C 34591.4 hPa NW 35.7 km/h 35.7 km/h 56 % 0 mm 98.0 W/m2 CLR
17:11 -11.4 °C -16.2 °C 34601.5 hPa NW 29.8 km/h 29.8 km/h 56 % 0 mm 86.0 W/m2 CLR
17:16 -11.5 °C -16.1 °C 34601.5 hPa NW 49.2 km/h 49.2 km/h 57 % 0 mm 67.0 W/m2 SCT
17:21 -11.6 °C -16 °C 34601.5 hPa NW 38.8 km/h 38.8 km/h 58 % 0 mm 70.0 W/m2 FEW
17:41 -11.8 °C -16.1 °C 34601.5 hPa WNW 26.9 km/h 26.9 km/h 59 % 0 mm 19.0 W/m2 BKN
17:46 -11.9 °C -16.2 °C 34611.7 hPa WNW 29.8 km/h 29.8 km/h 59 % 0 mm 16.0 W/m2 BKN
17:51 -11.9 °C -16.2 °C 34611.7 hPa WNW 29.8 km/h 29.8 km/h 59 % 0 mm 11.0 W/m2 BKN
17:56 -12 °C -16.1 °C 34611.7 hPa WNW 29.8 km/h 29.8 km/h 60 % 0 mm 9.0 W/m2 BKN
18:06 -12.1 °C -16.3 °C 34611.7 hPa West 17.9 km/h 17.9 km/h 59 % 0 mm 5.0 W/m2 OVC
18:11 -12.1 °C -16.3 °C 34611.7 hPa West 20.9 km/h 20.9 km/h 59 % 0 mm 0.0 W/m2 OVC
18:16 -12.2 °C -16.3 °C 34625.2 hPa Calm     60 % 0 mm 0.0 W/m2 OVC
18:21 -12.3 °C -16.3 °C 34625.2 hPa Calm     60 % 0 mm 0.0 W/m2 OVC
18:26 -12.3 °C -16.3 °C 34625.2 hPa WNW 23.8 km/h 23.8 km/h 61 % 0 mm 0.0 W/m2 CLR
18:31 -12.3 °C -16.2 °C 34625.2 hPa Calm     62 % 0 mm 0.0 W/m2 CLR
18:41 -12.5 °C -16.2 °C 34635.4 hPa Calm     63 % 0 mm 0.0 W/m2 CLR
18:46 -12.6 °C -16.3 °C 34635.4 hPa WNW 15 km/h 15 km/h 63 % 0 mm 0.0 W/m2 CLR
18:51 -12.6 °C -16.3 °C 34645.6 hPa WNW 23.8 km/h 23.8 km/h 63 % 0 mm 0.0 W/m2 CLR
18:56 -12.6 °C -16.4 °C 34645.6 hPa WNW 29.8 km/h 29.8 km/h 62 % 0 mm 0.0 W/m2 CLR
19:01 -12.6 °C -16.4 °C 34645.6 hPa WNW 32.8 km/h 32.8 km/h 62 % 0 mm 0.0 W/m2 CLR
19:06 -12.6 °C -16.4 °C 34645.6 hPa West 23.8 km/h 23.8 km/h 62 % 0 mm 0.0 W/m2 CLR
19:11 -12.6 °C -16.4 °C 34645.6 hPa West 25.9 km/h 25.9 km/h 62 % 0 mm 0.0 W/m2 CLR
19:16 -12.7 °C -16.5 °C 34645.6 hPa West 26.9 km/h 26.9 km/h 62 % 0 mm 0.0 W/m2 CLR
19:21 -12.7 °C -16.5 °C 34645.6 hPa West 15 km/h 15 km/h 62 % 0 mm 0.0 W/m2 CLR
19:26 -12.7 °C -16.4 °C 34659.1 hPa West 9 km/h   63 % 0 mm 0.0 W/m2 CLR
19:31 -12.8 °C -16.5 °C 34659.1 hPa Calm     63 % 0 mm 0.0 W/m2 CLR
19:36 -12.8 °C -16.4 °C 34669.3 hPa Calm     64 % 0 mm 0.0 W/m2 CLR
19:41 -12.9 °C -16.4 °C 34669.3 hPa WSW 17.9 km/h 17.9 km/h 64 % 0 mm 0.0 W/m2 CLR
19:51 -12.9 °C -16.5 °C 34669.3 hPa West 23.8 km/h 23.8 km/h 64 % 0 mm 0.0 W/m2 CLR
19:56 -12.9 °C -16.5 °C 34682.8 hPa West 25.9 km/h 25.9 km/h 64 % 0 mm 0.0 W/m2 CLR
20:01 -12.9 °C -16.3 °C 34682.8 hPa West 23.8 km/h 23.8 km/h 65 % 0 mm 0.0 W/m2 CLR
20:06 -12.9 °C -16.3 °C 34682.8 hPa West 38.8 km/h 38.8 km/h 65 % 0 mm 0.0 W/m2 CLR
20:16 -12.8 °C -16.3 °C 34682.8 hPa West 35.7 km/h 35.7 km/h 65 % 0 mm 0.0 W/m2 CLR
20:21 -12.8 °C -16.4 °C 34682.8 hPa West 32.8 km/h 32.8 km/h 64 % 0 mm 0.0 W/m2 CLR
20:26 -12.8 °C -16.4 °C 34682.8 hPa West 29.8 km/h 29.8 km/h 64 % 0 mm 0.0 W/m2 CLR
20:31 -12.8 °C -16.4 °C 34682.8 hPa West 29.8 km/h 29.8 km/h 64 % 0 mm 0.0 W/m2 CLR
20:36 -12.9 °C -16.4 °C 34693 hPa West 29.8 km/h 29.8 km/h 64 % 0 mm 0.0 W/m2 CLR
20:41 -12.9 °C -16.4 °C 34693 hPa West 35.7 km/h 35.7 km/h 64 % 0 mm 0.0 W/m2 CLR
20:46 -12.9 °C -16.5 °C 34693 hPa West 29.8 km/h 29.8 km/h 64 % 0 mm 0.0 W/m2 CLR
20:51 -12.9 °C -16.5 °C 34693 hPa West 29.8 km/h 29.8 km/h 64 % 0 mm 0.0 W/m2 CLR
21:01 -13.2 °C -16.6 °C 34693 hPa WSW 32.8 km/h 32.8 km/h 65 % 0 mm 0.0 W/m2 CLR
21:06 -13.3 °C -16.5 °C 34703.1 hPa WSW 26.9 km/h 26.9 km/h 67 % 0 mm 0.0 W/m2 CLR
21:12 -13.5 °C -16.6 °C 34703.1 hPa WSW 23.8 km/h 23.8 km/h 68 % 0 mm 0.0 W/m2 CLR
21:17 -13.7 °C -16.6 °C 34703.1 hPa WSW 17.9 km/h 17.9 km/h 70 % 0 mm 0.0 W/m2 CLR
21:27 -13.5 °C -16.6 °C 34703.1 hPa West 38.8 km/h 38.8 km/h 68 % 0 mm 0.0 W/m2 CLR
21:32 -13.3 °C -16.6 °C 34703.1 hPa West 29.8 km/h 29.8 km/h 67 % 0 mm 0.0 W/m2 CLR
21:37 -13.3 °C -16.6 °C 34716.7 hPa West 29.8 km/h 29.8 km/h 66 % 0 mm 0.0 W/m2 CLR
21:42 -13.3 °C -16.6 °C 34716.7 hPa West 38.8 km/h 38.8 km/h 66 % 0 mm 0.0 W/m2 CLR
21:47 -13.3 °C -16.5 °C 34716.7 hPa West 32.8 km/h 32.8 km/h 67 % 0 mm 0.0 W/m2 CLR
21:52 -13.4 °C -16.6 °C 34716.7 hPa West 26.9 km/h 26.9 km/h 67 % 0 mm 0.0 W/m2 CLR
21:57 -13.4 °C -16.6 °C 34716.7 hPa West 32.8 km/h 32.8 km/h 67 % 0 mm 0.0 W/m2 CLR
22:02 -13.3 °C -16.6 °C 34726.8 hPa West 38.8 km/h 38.8 km/h 66 % 0 mm 0.0 W/m2 CLR
22:07 -13.3 °C -16.6 °C 34726.8 hPa West 38.8 km/h 38.8 km/h 66 % 0 mm 0.0 W/m2 CLR
22:12 -13.3 °C -16.6 °C 34726.8 hPa West 35.7 km/h 35.7 km/h 66 % 0 mm 0.0 W/m2 CLR
22:17 -13.2 °C -16.6 °C 34726.8 hPa West 32.8 km/h 32.8 km/h 66 % 0 mm 0.0 W/m2 CLR
22:22 -13.3 °C -16.6 °C 34726.8 hPa West 41.7 km/h 41.7 km/h 66 % 0 mm 0.0 W/m2 CLR
22:27 -13.3 °C -16.6 °C 34726.8 hPa West 32.8 km/h 32.8 km/h 66 % 0 mm 0.0 W/m2 CLR
22:32 -13.3 °C -16.6 °C 34726.8 hPa West 32.8 km/h 32.8 km/h 66 % 0 mm 0.0 W/m2 CLR
22:37 -13.4 °C -16.7 °C 34726.8 hPa West 38.8 km/h 38.8 km/h 66 % 0 mm 0.0 W/m2 CLR
22:42 -13.4 °C -16.7 °C 34726.8 hPa West 44.7 km/h 44.7 km/h 66 % 0 mm 0.0 W/m2 CLR
22:47 -13.4 °C -16.6 °C 34726.8 hPa West 38.8 km/h 38.8 km/h 67 % 0 mm 0.0 W/m2 CLR
22:52 -13.5 °C -16.7 °C 34726.8 hPa West 38.8 km/h 38.8 km/h 67 % 0 mm 0.0 W/m2 CLR
22:57 -13.6 °C -16.7 °C 34726.8 hPa West 38.8 km/h 38.8 km/h 67 % 0 mm 0.0 W/m2 CLR
23:02 -13.7 °C -16.7 °C 34740.4 hPa West 44.7 km/h 44.7 km/h 68 % 0 mm 0.0 W/m2 CLR
23:07 -13.7 °C -16.7 °C 34726.8 hPa West 33.6 km/h 33.6 km/h 68 % 0 mm 0.0 W/m2 CLR
23:12 -13.7 °C -16.6 °C 34740.4 hPa West 41.7 km/h 41.7 km/h 69 % 0 mm 0.0 W/m2 CLR
23:17 -13.7 °C -16.7 °C 34740.4 hPa West 36.2 km/h 36.2 km/h 69 % 0 mm 0.0 W/m2 CLR
23:22 -13.7 °C -16.7 °C 34740.4 hPa West 33.6 km/h 33.6 km/h 69 % 0 mm 0.0 W/m2 CLR
23:27 -13.7 °C -16.7 °C 34740.4 hPa West 31.1 km/h 31.1 km/h 69 % 0 mm 0.0 W/m2 CLR
23:32 -13.7 °C -16.7 °C 34740.4 hPa West 26.9 km/h 26.9 km/h 69 % 0 mm 0.0 W/m2 CLR
23:37 -13.8 °C -16.6 °C 34740.4 hPa West 32.8 km/h 32.8 km/h 70 % 0 mm 0.0 W/m2 CLR
23:42 -13.7 °C -16.7 °C 34740.4 hPa West 29.8 km/h 29.8 km/h 69 % 0 mm 0.0 W/m2 CLR
23:47 -13.8 °C -16.7 °C 34740.4 hPa West 29.8 km/h 29.8 km/h 69 % 0 mm 0.0 W/m2 CLR
23:52 -13.8 °C -16.7 °C 34740.4 hPa West 31.1 km/h 31.1 km/h 69 % 0 mm 0.0 W/m2 CLR
23:57 -13.8 °C -16.7 °C 34740.4 hPa West 29.8 km/h 29.8 km/h 69 % 0 mm 0.0 W/m2 CLR
Lo Temps de Massalio
Compliments of Weather Underground - 1 mb